sensor_id;sensor_type;location;lat;lon;timestamp;temperature;humidity
19359;DHT22;9815;52.334;20.890;2022-10-16T00:01:04;13.70;99.90
19359;DHT22;9815;52.334;20.890;2022-10-16T00:03:33;13.70;99.90
19359;DHT22;9815;52.334;20.890;2022-10-16T00:06:02;13.80;99.90
19359;DHT22;9815;52.334;20.890;2022-10-16T00:08:31;13.80;99.90
19359;DHT22;9815;52.334;20.890;2022-10-16T00:11:02;13.80;99.90
19359;DHT22;9815;52.334;20.890;2022-10-16T00:13:31;13.80;99.90
19359;DHT22;9815;52.334;20.890;2022-10-16T00:16:00;13.80;99.90
19359;DHT22;9815;52.334;20.890;2022-10-16T00:18:29;13.90;99.90
19359;DHT22;9815;52.334;20.890;2022-10-16T00:21:02;13.90;99.90
19359;DHT22;9815;52.334;20.890;2022-10-16T00:23:31;13.90;99.90
19359;DHT22;9815;52.334;20.890;2022-10-16T00:26:02;13.80;99.90
19359;DHT22;9815;52.334;20.890;2022-10-16T00:28:31;13.90;99.90
19359;DHT22;9815;52.334;20.890;2022-10-16T00:31:02;13.90;99.90
19359;DHT22;9815;52.334;20.890;2022-10-16T00:33:31;13.90;99.90
19359;DHT22;9815;52.334;20.890;2022-10-16T00:35:59;13.90;99.90
19359;DHT22;9815;52.334;20.890;2022-10-16T00:38:27;13.90;99.90
19359;DHT22;9815;52.334;20.890;2022-10-16T00:40:56;14.00;99.90
19359;DHT22;9815;52.334;20.890;2022-10-16T00:43:38;14.00;99.90
19359;DHT22;9815;52.334;20.890;2022-10-16T00:46:13;14.00;99.90
19359;DHT22;9815;52.334;20.890;2022-10-16T00:48:45;14.00;99.90
19359;DHT22;9815;52.334;20.890;2022-10-16T00:51:14;14.10;99.90
19359;DHT22;9815;52.334;20.890;2022-10-16T00:53:43;14.00;99.90
19359;DHT22;9815;52.334;20.890;2022-10-16T00:56:11;14.00;99.90
19359;DHT22;9815;52.334;20.890;2022-10-16T00:58:41;14.00;99.90
19359;DHT22;9815;52.334;20.890;2022-10-16T01:01:09;14.10;99.90
19359;DHT22;9815;52.334;20.890;2022-10-16T01:03:37;14.00;99.90
19359;DHT22;9815;52.334;20.890;2022-10-16T01:06:19;14.10;99.90
19359;DHT22;9815;52.334;20.890;2022-10-16T01:09:03;14.20;99.90
19359;DHT22;9815;52.334;20.890;2022-10-16T01:11:41;14.20;99.90
19359;DHT22;9815;52.334;20.890;2022-10-16T01:14:21;14.20;99.90
19359;DHT22;9815;52.334;20.890;2022-10-16T01:16:54;14.20;99.90
19359;DHT22;9815;52.334;20.890;2022-10-16T01:19:44;14.20;99.90
19359;DHT22;9815;52.334;20.890;2022-10-16T01:22:16;14.20;99.90
19359;DHT22;9815;52.334;20.890;2022-10-16T01:24:46;14.10;99.90
19359;DHT22;9815;52.334;20.890;2022-10-16T01:27:20;14.10;99.90
19359;DHT22;9815;52.334;20.890;2022-10-16T01:29:53;14.10;99.90
19359;DHT22;9815;52.334;20.890;2022-10-16T01:32:28;14.10;99.90
19359;DHT22;9815;52.334;20.890;2022-10-16T01:35:01;14.10;99.90
19359;DHT22;9815;52.334;20.890;2022-10-16T01:37:35;14.10;99.90
19359;DHT22;9815;52.334;20.890;2022-10-16T01:40:07;14.10;99.90
19359;DHT22;9815;52.334;20.890;2022-10-16T01:42:40;14.10;99.90
19359;DHT22;9815;52.334;20.890;2022-10-16T01:45:12;14.10;99.90
19359;DHT22;9815;52.334;20.890;2022-10-16T01:47:41;14.10;99.90
19359;DHT22;9815;52.334;20.890;2022-10-16T01:50:12;14.10;99.90
19359;DHT22;9815;52.334;20.890;2022-10-16T01:52:44;14.10;99.90
19359;DHT22;9815;52.334;20.890;2022-10-16T01:55:16;14.00;99.90
19359;DHT22;9815;52.334;20.890;2022-10-16T01:57:48;14.00;99.90
19359;DHT22;9815;52.334;20.890;2022-10-16T02:00:19;14.00;99.90
19359;DHT22;9815;52.334;20.890;2022-10-16T02:02:50;13.90;99.90
19359;DHT22;9815;52.334;20.890;2022-10-16T02:05:23;13.90;99.90
19359;DHT22;9815;52.334;20.890;2022-10-16T02:07:53;13.90;99.90
19359;DHT22;9815;52.334;20.890;2022-10-16T02:10:25;13.90;99.90
19359;DHT22;9815;52.334;20.890;2022-10-16T02:13:02;14.00;99.90
19359;DHT22;9815;52.334;20.890;2022-10-16T02:15:31;13.90;99.90
19359;DHT22;9815;52.334;20.890;2022-10-16T02:17:59;13.90;99.90
19359;DHT22;9815;52.334;20.890;2022-10-16T02:20:30;13.90;99.90
19359;DHT22;9815;52.334;20.890;2022-10-16T02:23:01;13.80;99.90
19359;DHT22;9815;52.334;20.890;2022-10-16T02:25:32;13.80;99.90
19359;DHT22;9815;52.334;20.890;2022-10-16T02:28:07;13.80;99.90
19359;DHT22;9815;52.334;20.890;2022-10-16T02:30:40;13.70;99.90
19359;DHT22;9815;52.334;20.890;2022-10-16T02:33:11;13.70;99.90
19359;DHT22;9815;52.334;20.890;2022-10-16T02:35:42;13.70;99.90
19359;DHT22;9815;52.334;20.890;2022-10-16T02:38:11;13.70;99.90
19359;DHT22;9815;52.334;20.890;2022-10-16T02:40:40;13.70;99.90
19359;DHT22;9815;52.334;20.890;2022-10-16T02:43:10;13.70;99.90
19359;DHT22;9815;52.334;20.890;2022-10-16T02:45:39;13.70;99.90
19359;DHT22;9815;52.334;20.890;2022-10-16T02:48:07;13.70;99.90
19359;DHT22;9815;52.334;20.890;2022-10-16T02:50:35;13.70;99.90
19359;DHT22;9815;52.334;20.890;2022-10-16T02:53:03;13.70;99.90
19359;DHT22;9815;52.334;20.890;2022-10-16T02:55:31;13.60;99.90
19359;DHT22;9815;52.334;20.890;2022-10-16T02:58:00;13.70;99.90
19359;DHT22;9815;52.334;20.890;2022-10-16T03:00:29;13.70;99.90
19359;DHT22;9815;52.334;20.890;2022-10-16T03:02:57;13.70;99.90
19359;DHT22;9815;52.334;20.890;2022-10-16T03:05:25;13.60;99.90
19359;DHT22;9815;52.334;20.890;2022-10-16T03:07:53;13.70;99.90
19359;DHT22;9815;52.334;20.890;2022-10-16T03:10:22;13.60;99.90
19359;DHT22;9815;52.334;20.890;2022-10-16T03:12:50;13.60;99.90
19359;DHT22;9815;52.334;20.890;2022-10-16T03:15:18;13.70;99.90
19359;DHT22;9815;52.334;20.890;2022-10-16T03:17:47;13.60;99.90
19359;DHT22;9815;52.334;20.890;2022-10-16T03:20:16;13.70;99.90
19359;DHT22;9815;52.334;20.890;2022-10-16T03:22:44;13.70;99.90
19359;DHT22;9815;52.334;20.890;2022-10-16T03:25:12;13.60;99.90
19359;DHT22;9815;52.334;20.890;2022-10-16T03:27:40;13.60;99.90
19359;DHT22;9815;52.334;20.890;2022-10-16T03:30:09;13.60;99.90
19359;DHT22;9815;52.334;20.890;2022-10-16T03:32:37;13.60;99.90
19359;DHT22;9815;52.334;20.890;2022-10-16T03:35:08;13.60;99.90
19359;DHT22;9815;52.334;20.890;2022-10-16T03:37:36;13.60;99.90
19359;DHT22;9815;52.334;20.890;2022-10-16T03:40:05;13.50;99.90
19359;DHT22;9815;52.334;20.890;2022-10-16T03:42:33;13.60;99.90
19359;DHT22;9815;52.334;20.890;2022-10-16T03:45:01;13.60;99.90
19359;DHT22;9815;52.334;20.890;2022-10-16T03:47:29;13.60;99.90
19359;DHT22;9815;52.334;20.890;2022-10-16T03:49:59;13.60;99.90
19359;DHT22;9815;52.334;20.890;2022-10-16T03:52:29;13.60;99.90
19359;DHT22;9815;52.334;20.890;2022-10-16T03:54:58;13.50;99.90
19359;DHT22;9815;52.334;20.890;2022-10-16T03:57:27;13.50;99.90
19359;DHT22;9815;52.334;20.890;2022-10-16T03:59:55;13.40;99.90
19359;DHT22;9815;52.334;20.890;2022-10-16T04:02:23;13.40;99.90
19359;DHT22;9815;52.334;20.890;2022-10-16T04:04:51;13.30;99.90
19359;DHT22;9815;52.334;20.890;2022-10-16T04:07:20;13.30;99.90
19359;DHT22;9815;52.334;20.890;2022-10-16T04:09:49;13.10;99.90
19359;DHT22;9815;52.334;20.890;2022-10-16T04:12:18;13.10;99.90
19359;DHT22;9815;52.334;20.890;2022-10-16T04:14:46;13.10;99.90
19359;DHT22;9815;52.334;20.890;2022-10-16T04:17:15;13.00;99.90
19359;DHT22;9815;52.334;20.890;2022-10-16T04:19:44;12.90;99.90
19359;DHT22;9815;52.334;20.890;2022-10-16T04:22:12;12.90;99.90
19359;DHT22;9815;52.334;20.890;2022-10-16T04:24:40;12.90;99.90
19359;DHT22;9815;52.334;20.890;2022-10-16T04:27:09;12.80;99.90
19359;DHT22;9815;52.334;20.890;2022-10-16T04:29:37;12.70;99.90
19359;DHT22;9815;52.334;20.890;2022-10-16T04:32:07;12.70;99.90
19359;DHT22;9815;52.334;20.890;2022-10-16T04:34:36;12.60;99.90
19359;DHT22;9815;52.334;20.890;2022-10-16T04:37:05;12.60;99.90
19359;DHT22;9815;52.334;20.890;2022-10-16T04:39:33;12.50;99.90
19359;DHT22;9815;52.334;20.890;2022-10-16T04:42:02;12.40;99.90
19359;DHT22;9815;52.334;20.890;2022-10-16T04:44:31;12.40;99.90
19359;DHT22;9815;52.334;20.890;2022-10-16T04:46:59;12.30;99.90
19359;DHT22;9815;52.334;20.890;2022-10-16T04:49:28;12.20;99.90
19359;DHT22;9815;52.334;20.890;2022-10-16T04:51:56;12.20;99.90
19359;DHT22;9815;52.334;20.890;2022-10-16T04:54:24;12.10;99.90
19359;DHT22;9815;52.334;20.890;2022-10-16T04:56:52;12.00;99.90
19359;DHT22;9815;52.334;20.890;2022-10-16T04:59:21;11.90;99.90
19359;DHT22;9815;52.334;20.890;2022-10-16T05:01:50;11.90;99.90
19359;DHT22;9815;52.334;20.890;2022-10-16T05:04:18;11.90;99.90
19359;DHT22;9815;52.334;20.890;2022-10-16T05:06:47;11.90;99.90
19359;DHT22;9815;52.334;20.890;2022-10-16T05:09:16;11.90;99.90
19359;DHT22;9815;52.334;20.890;2022-10-16T05:11:44;11.90;99.90
19359;DHT22;9815;52.334;20.890;2022-10-16T05:14:12;11.90;99.90
19359;DHT22;9815;52.334;20.890;2022-10-16T05:16:40;11.80;99.90
19359;DHT22;9815;52.334;20.890;2022-10-16T05:19:10;11.90;99.90
19359;DHT22;9815;52.334;20.890;2022-10-16T05:21:55;11.90;99.90
19359;DHT22;9815;52.334;20.890;2022-10-16T05:24:23;11.80;99.90
19359;DHT22;9815;52.334;20.890;2022-10-16T05:26:51;11.90;99.90
19359;DHT22;9815;52.334;20.890;2022-10-16T05:29:19;11.90;99.90
19359;DHT22;9815;52.334;20.890;2022-10-16T05:31:50;12.00;99.90
19359;DHT22;9815;52.334;20.890;2022-10-16T05:34:21;12.00;99.90
19359;DHT22;9815;52.334;20.890;2022-10-16T05:36:49;11.90;99.90
19359;DHT22;9815;52.334;20.890;2022-10-16T05:39:17;12.00;99.90
19359;DHT22;9815;52.334;20.890;2022-10-16T05:41:45;12.10;99.90
19359;DHT22;9815;52.334;20.890;2022-10-16T05:44:13;12.10;99.90
19359;DHT22;9815;52.334;20.890;2022-10-16T05:46:41;12.20;99.90
19359;DHT22;9815;52.334;20.890;2022-10-16T05:49:10;12.20;99.90
19359;DHT22;9815;52.334;20.890;2022-10-16T05:51:39;12.20;99.90
19359;DHT22;9815;52.334;20.890;2022-10-16T05:54:08;12.40;99.90
19359;DHT22;9815;52.334;20.890;2022-10-16T05:56:36;12.30;99.90
19359;DHT22;9815;52.334;20.890;2022-10-16T05:59:04;12.30;99.90
19359;DHT22;9815;52.334;20.890;2022-10-16T06:01:33;12.40;99.90
19359;DHT22;9815;52.334;20.890;2022-10-16T06:04:02;12.40;99.90
19359;DHT22;9815;52.334;20.890;2022-10-16T06:06:31;12.40;99.90
19359;DHT22;9815;52.334;20.890;2022-10-16T06:09:00;12.40;99.90
19359;DHT22;9815;52.334;20.890;2022-10-16T06:11:30;12.40;99.90
19359;DHT22;9815;52.334;20.890;2022-10-16T06:14:01;12.40;99.90
19359;DHT22;9815;52.334;20.890;2022-10-16T06:16:34;12.50;99.90
19359;DHT22;9815;52.334;20.890;2022-10-16T06:19:03;12.60;99.90
19359;DHT22;9815;52.334;20.890;2022-10-16T06:21:33;12.70;99.90
19359;DHT22;9815;52.334;20.890;2022-10-16T06:24:03;12.80;99.90
19359;DHT22;9815;52.334;20.890;2022-10-16T06:26:31;12.80;99.90
19359;DHT22;9815;52.334;20.890;2022-10-16T06:28:59;12.90;99.90
19359;DHT22;9815;52.334;20.890;2022-10-16T06:31:28;13.00;99.90
19359;DHT22;9815;52.334;20.890;2022-10-16T06:33:58;13.10;99.90
19359;DHT22;9815;52.334;20.890;2022-10-16T06:36:26;13.30;99.90
19359;DHT22;9815;52.334;20.890;2022-10-16T06:38:55;13.30;99.90
19359;DHT22;9815;52.334;20.890;2022-10-16T06:41:24;13.40;99.90
19359;DHT22;9815;52.334;20.890;2022-10-16T06:43:52;13.60;99.90
19359;DHT22;9815;52.334;20.890;2022-10-16T06:46:22;13.60;99.90
19359;DHT22;9815;52.334;20.890;2022-10-16T06:48:52;13.70;99.90
19359;DHT22;9815;52.334;20.890;2022-10-16T06:51:21;13.90;99.90
19359;DHT22;9815;52.334;20.890;2022-10-16T06:53:51;14.00;99.90
19359;DHT22;9815;52.334;20.890;2022-10-16T06:56:32;14.10;99.90
19359;DHT22;9815;52.334;20.890;2022-10-16T06:59:01;14.30;99.90
19359;DHT22;9815;52.334;20.890;2022-10-16T07:01:30;14.50;99.90
19359;DHT22;9815;52.334;20.890;2022-10-16T07:03:59;14.70;99.90
19359;DHT22;9815;52.334;20.890;2022-10-16T07:06:32;15.00;99.90
19359;DHT22;9815;52.334;20.890;2022-10-16T07:09:03;15.00;99.90
19359;DHT22;9815;52.334;20.890;2022-10-16T07:11:33;15.00;99.90
19359;DHT22;9815;52.334;20.890;2022-10-16T07:14:02;15.00;99.90
19359;DHT22;9815;52.334;20.890;2022-10-16T07:16:32;14.90;99.90
19359;DHT22;9815;52.334;20.890;2022-10-16T07:19:01;14.80;99.90
19359;DHT22;9815;52.334;20.890;2022-10-16T07:21:31;14.80;99.90
19359;DHT22;9815;52.334;20.890;2022-10-16T07:24:03;14.80;99.90
19359;DHT22;9815;52.334;20.890;2022-10-16T07:26:35;14.70;99.90
19359;DHT22;9815;52.334;20.890;2022-10-16T07:29:06;14.70;99.90
19359;DHT22;9815;52.334;20.890;2022-10-16T07:31:36;14.70;99.90
19359;DHT22;9815;52.334;20.890;2022-10-16T07:34:05;14.80;99.90
19359;DHT22;9815;52.334;20.890;2022-10-16T07:36:33;14.80;99.90
19359;DHT22;9815;52.334;20.890;2022-10-16T07:39:02;14.90;99.90
19359;DHT22;9815;52.334;20.890;2022-10-16T07:41:30;15.10;99.90
19359;DHT22;9815;52.334;20.890;2022-10-16T07:44:00;15.30;99.90
19359;DHT22;9815;52.334;20.890;2022-10-16T07:46:29;15.60;99.90
19359;DHT22;9815;52.334;20.890;2022-10-16T07:48:57;15.70;99.90
19359;DHT22;9815;52.334;20.890;2022-10-16T07:51:26;16.00;99.90
19359;DHT22;9815;52.334;20.890;2022-10-16T07:53:54;16.20;99.90
19359;DHT22;9815;52.334;20.890;2022-10-16T07:56:23;16.20;98.10
19359;DHT22;9815;52.334;20.890;2022-10-16T07:58:51;16.20;98.10
19359;DHT22;9815;52.334;20.890;2022-10-16T08:01:21;16.20;98.40
19359;DHT22;9815;52.334;20.890;2022-10-16T08:03:50;16.20;98.50
19359;DHT22;9815;52.334;20.890;2022-10-16T08:06:20;16.20;99.40
19359;DHT22;9815;52.334;20.890;2022-10-16T08:08:54;16.20;98.70
19359;DHT22;9815;52.334;20.890;2022-10-16T08:11:22;16.20;98.80
19359;DHT22;9815;52.334;20.890;2022-10-16T08:13:51;16.30;98.40
19359;DHT22;9815;52.334;20.890;2022-10-16T08:16:20;16.40;98.70
19359;DHT22;9815;52.334;20.890;2022-10-16T08:18:49;16.50;97.50
19359;DHT22;9815;52.334;20.890;2022-10-16T08:21:20;16.60;97.60
19359;DHT22;9815;52.334;20.890;2022-10-16T08:23:49;16.70;97.40
19359;DHT22;9815;52.334;20.890;2022-10-16T08:26:24;16.70;97.20
19359;DHT22;9815;52.334;20.890;2022-10-16T08:28:53;16.70;96.20
19359;DHT22;9815;52.334;20.890;2022-10-16T08:31:23;16.80;96.70
19359;DHT22;9815;52.334;20.890;2022-10-16T08:33:51;16.90;96.70
19359;DHT22;9815;52.334;20.890;2022-10-16T08:36:19;17.00;95.80
19359;DHT22;9815;52.334;20.890;2022-10-16T08:38:48;17.20;96.30
19359;DHT22;9815;52.334;20.890;2022-10-16T08:41:53;17.30;95.90
19359;DHT22;9815;52.334;20.890;2022-10-16T08:44:36;17.40;94.40
19359;DHT22;9815;52.334;20.890;2022-10-16T08:47:17;17.50;94.70
19359;DHT22;9815;52.334;20.890;2022-10-16T08:49:55;17.40;94.80
19359;DHT22;9815;52.334;20.890;2022-10-16T08:52:28;17.50;95.70
19359;DHT22;9815;52.334;20.890;2022-10-16T08:54:57;17.50;94.90
19359;DHT22;9815;52.334;20.890;2022-10-16T08:57:25;17.60;94.40
19359;DHT22;9815;52.334;20.890;2022-10-16T08:59:59;17.70;96.00
19359;DHT22;9815;52.334;20.890;2022-10-16T09:02:33;17.80;95.00
19359;DHT22;9815;52.334;20.890;2022-10-16T09:05:14;17.90;95.40
19359;DHT22;9815;52.334;20.890;2022-10-16T09:07:50;18.00;94.40
19359;DHT22;9815;52.334;20.890;2022-10-16T09:10:30;18.20;94.80
19359;DHT22;9815;52.334;20.890;2022-10-16T09:13:06;18.40;93.00
19359;DHT22;9815;52.334;20.890;2022-10-16T09:15:42;18.70;90.90
19359;DHT22;9815;52.334;20.890;2022-10-16T09:18:18;18.90;90.20
19359;DHT22;9815;52.334;20.890;2022-10-16T09:20:56;19.20;89.00
19359;DHT22;9815;52.334;20.890;2022-10-16T09:23:28;19.20;88.60
19359;DHT22;9815;52.334;20.890;2022-10-16T09:25:58;19.20;87.30
19359;DHT22;9815;52.334;20.890;2022-10-16T09:28:27;19.20;87.00
19359;DHT22;9815;52.334;20.890;2022-10-16T09:30:55;19.20;90.10
19359;DHT22;9815;52.334;20.890;2022-10-16T09:33:28;19.20;88.90
19359;DHT22;9815;52.334;20.890;2022-10-16T09:35:57;19.10;90.70
19359;DHT22;9815;52.334;20.890;2022-10-16T09:38:28;19.00;90.40
19359;DHT22;9815;52.334;20.890;2022-10-16T09:40:58;18.90;90.20
19359;DHT22;9815;52.334;20.890;2022-10-16T09:43:34;18.80;90.20
19359;DHT22;9815;52.334;20.890;2022-10-16T09:46:04;18.80;91.10
19359;DHT22;9815;52.334;20.890;2022-10-16T09:48:37;18.90;91.00
19359;DHT22;9815;52.334;20.890;2022-10-16T09:51:16;19.00;92.00
19359;DHT22;9815;52.334;20.890;2022-10-16T09:53:46;19.30;92.30
19359;DHT22;9815;52.334;20.890;2022-10-16T09:56:22;19.60;89.40
19359;DHT22;9815;52.334;20.890;2022-10-16T09:58:52;19.80;87.00
19359;DHT22;9815;52.334;20.890;2022-10-16T10:01:22;19.90;87.40
19359;DHT22;9815;52.334;20.890;2022-10-16T10:03:56;20.10;86.50
19359;DHT22;9815;52.334;20.890;2022-10-16T10:06:29;20.20;81.60
19359;DHT22;9815;52.334;20.890;2022-10-16T10:09:02;20.30;78.80
19359;DHT22;9815;52.334;20.890;2022-10-16T10:11:42;20.40;80.60
19359;DHT22;9815;52.334;20.890;2022-10-16T10:14:33;20.50;79.70
19359;DHT22;9815;52.334;20.890;2022-10-16T10:17:11;20.50;79.30
19359;DHT22;9815;52.334;20.890;2022-10-16T10:19:44;20.50;78.60
19359;DHT22;9815;52.334;20.890;2022-10-16T10:22:18;20.40;80.00
19359;DHT22;9815;52.334;20.890;2022-10-16T10:24:55;20.20;78.60
19359;DHT22;9815;52.334;20.890;2022-10-16T10:27:27;20.10;81.20
19359;DHT22;9815;52.334;20.890;2022-10-16T10:30:02;20.00;83.30
19359;DHT22;9815;52.334;20.890;2022-10-16T10:32:40;19.90;85.60
19359;DHT22;9815;52.334;20.890;2022-10-16T10:35:17;19.90;86.30
19359;DHT22;9815;52.334;20.890;2022-10-16T10:38:02;19.70;84.40
19359;DHT22;9815;52.334;20.890;2022-10-16T10:40:43;19.60;85.20
19359;DHT22;9815;52.334;20.890;2022-10-16T10:43:25;19.60;88.20
19359;DHT22;9815;52.334;20.890;2022-10-16T10:45:59;19.60;84.90
19359;DHT22;9815;52.334;20.890;2022-10-16T10:48:46;19.60;86.10
19359;DHT22;9815;52.334;20.890;2022-10-16T10:51:21;19.70;87.10
19359;DHT22;9815;52.334;20.890;2022-10-16T10:53:58;19.70;86.60
19359;DHT22;9815;52.334;20.890;2022-10-16T10:56:43;19.80;83.80
19359;DHT22;9815;52.334;20.890;2022-10-16T10:59:32;19.90;83.50
19359;DHT22;9815;52.334;20.890;2022-10-16T11:02:10;20.00;83.80
19359;DHT22;9815;52.334;20.890;2022-10-16T11:07:55;20.20;80.90
19359;DHT22;9815;52.334;20.890;2022-10-16T11:10:28;20.50;80.20
19359;DHT22;9815;52.334;20.890;2022-10-16T11:13:03;21.10;74.60
19359;DHT22;9815;52.334;20.890;2022-10-16T11:15:37;21.20;72.20
19359;DHT22;9815;52.334;20.890;2022-10-16T11:18:11;21.10;71.50
19359;DHT22;9815;52.334;20.890;2022-10-16T11:20:44;20.90;74.10
19359;DHT22;9815;52.334;20.890;2022-10-16T11:23:20;20.70;76.00
19359;DHT22;9815;52.334;20.890;2022-10-16T11:25:53;20.60;75.70
19359;DHT22;9815;52.334;20.890;2022-10-16T11:28:27;20.50;76.60
19359;DHT22;9815;52.334;20.890;2022-10-16T11:31:02;20.50;78.00
19359;DHT22;9815;52.334;20.890;2022-10-16T11:33:37;20.60;77.80
19359;DHT22;9815;52.334;20.890;2022-10-16T11:36:12;20.50;75.70
19359;DHT22;9815;52.334;20.890;2022-10-16T11:38:49;20.40;78.40
19359;DHT22;9815;52.334;20.890;2022-10-16T11:41:26;20.40;80.00
19359;DHT22;9815;52.334;20.890;2022-10-16T11:44:17;20.50;77.80
19359;DHT22;9815;52.334;20.890;2022-10-16T11:46:52;20.40;78.40
19359;DHT22;9815;52.334;20.890;2022-10-16T11:49:47;20.50;79.10
19359;DHT22;9815;52.334;20.890;2022-10-16T11:52:22;20.60;78.50
19359;DHT22;9815;52.334;20.890;2022-10-16T11:54:57;20.70;78.40
19359;DHT22;9815;52.334;20.890;2022-10-16T11:57:29;20.70;77.50
19359;DHT22;9815;52.334;20.890;2022-10-16T12:00:02;20.70;79.20
19359;DHT22;9815;52.334;20.890;2022-10-16T12:02:50;20.70;76.90
19359;DHT22;9815;52.334;20.890;2022-10-16T12:05:25;20.70;78.20
19359;DHT22;9815;52.334;20.890;2022-10-16T12:08:04;20.60;79.30
19359;DHT22;9815;52.334;20.890;2022-10-16T12:10:36;20.50;81.10
19359;DHT22;9815;52.334;20.890;2022-10-16T12:16:20;20.40;82.40
19359;DHT22;9815;52.334;20.890;2022-10-16T12:18:48;20.30;82.90
19359;DHT22;9815;52.334;20.890;2022-10-16T12:21:19;20.30;81.80
19359;DHT22;9815;52.334;20.890;2022-10-16T12:23:58;20.50;81.70
19359;DHT22;9815;52.334;20.890;2022-10-16T12:26:32;20.60;79.70
19359;DHT22;9815;52.334;20.890;2022-10-16T12:29:13;20.70;78.00
19359;DHT22;9815;52.334;20.890;2022-10-16T12:31:45;20.80;76.30
19359;DHT22;9815;52.334;20.890;2022-10-16T12:34:27;20.80;78.00
19359;DHT22;9815;52.334;20.890;2022-10-16T12:36:56;20.70;78.00
19359;DHT22;9815;52.334;20.890;2022-10-16T12:39:36;20.60;81.60
19359;DHT22;9815;52.334;20.890;2022-10-16T12:42:20;20.60;80.30
19359;DHT22;9815;52.334;20.890;2022-10-16T12:44:50;20.70;80.50
19359;DHT22;9815;52.334;20.890;2022-10-16T12:47:21;20.90;79.90
19359;DHT22;9815;52.334;20.890;2022-10-16T12:49:51;21.20;77.40
19359;DHT22;9815;52.334;20.890;2022-10-16T12:52:31;21.30;74.60
19359;DHT22;9815;52.334;20.890;2022-10-16T12:55:05;21.40;74.60
19359;DHT22;9815;52.334;20.890;2022-10-16T12:57:44;21.10;74.10
19359;DHT22;9815;52.334;20.890;2022-10-16T13:00:21;20.80;77.90
19359;DHT22;9815;52.334;20.890;2022-10-16T13:03:11;20.40;76.70
19359;DHT22;9815;52.334;20.890;2022-10-16T13:05:56;20.30;81.20
19359;DHT22;9815;52.334;20.890;2022-10-16T13:08:39;20.10;81.70
19359;DHT22;9815;52.334;20.890;2022-10-16T13:11:15;19.90;84.20
19359;DHT22;9815;52.334;20.890;2022-10-16T13:14:02;19.80;86.20
19359;DHT22;9815;52.334;20.890;2022-10-16T13:16:42;19.70;90.00
19359;DHT22;9815;52.334;20.890;2022-10-16T13:19:18;19.60;88.40
19359;DHT22;9815;52.334;20.890;2022-10-16T13:21:54;19.50;90.40
19359;DHT22;9815;52.334;20.890;2022-10-16T13:24:46;19.40;90.30
19359;DHT22;9815;52.334;20.890;2022-10-16T13:27:24;19.40;90.40
19359;DHT22;9815;52.334;20.890;2022-10-16T13:30:08;19.30;92.90
19359;DHT22;9815;52.334;20.890;2022-10-16T13:32:39;19.30;92.30
19359;DHT22;9815;52.334;20.890;2022-10-16T13:35:20;19.20;93.00
19359;DHT22;9815;52.334;20.890;2022-10-16T13:37:48;19.20;91.90
19359;DHT22;9815;52.334;20.890;2022-10-16T13:40:22;19.20;91.50
19359;DHT22;9815;52.334;20.890;2022-10-16T13:42:51;19.20;92.10
19359;DHT22;9815;52.334;20.890;2022-10-16T13:45:24;19.20;92.20
19359;DHT22;9815;52.334;20.890;2022-10-16T13:48:02;19.10;93.20
19359;DHT22;9815;52.334;20.890;2022-10-16T13:50:30;19.10;93.20
19359;DHT22;9815;52.334;20.890;2022-10-16T13:53:05;19.10;92.90
19359;DHT22;9815;52.334;20.890;2022-10-16T13:55:33;19.00;93.50
19359;DHT22;9815;52.334;20.890;2022-10-16T13:58:05;18.90;93.60
19359;DHT22;9815;52.334;20.890;2022-10-16T14:00:36;18.90;93.50
19359;DHT22;9815;52.334;20.890;2022-10-16T14:03:13;18.90;94.10
19359;DHT22;9815;52.334;20.890;2022-10-16T14:05:45;18.90;94.50
19359;DHT22;9815;52.334;20.890;2022-10-16T14:08:15;18.90;94.70
19359;DHT22;9815;52.334;20.890;2022-10-16T14:10:47;18.90;94.60
19359;DHT22;9815;52.334;20.890;2022-10-16T14:13:18;18.90;94.50
19359;DHT22;9815;52.334;20.890;2022-10-16T14:15:50;18.90;94.50
19359;DHT22;9815;52.334;20.890;2022-10-16T14:18:21;18.90;95.60
19359;DHT22;9815;52.334;20.890;2022-10-16T14:20:50;18.80;95.60
19359;DHT22;9815;52.334;20.890;2022-10-16T14:23:21;18.90;96.60
19359;DHT22;9815;52.334;20.890;2022-10-16T14:25:50;18.90;96.10
19359;DHT22;9815;52.334;20.890;2022-10-16T14:28:20;18.80;96.30
19359;DHT22;9815;52.334;20.890;2022-10-16T14:30:54;18.80;96.20
19359;DHT22;9815;52.334;20.890;2022-10-16T14:33:24;18.80;96.40
19359;DHT22;9815;52.334;20.890;2022-10-16T14:36:02;18.80;98.00
19359;DHT22;9815;52.334;20.890;2022-10-16T14:38:32;18.70;97.90
19359;DHT22;9815;52.334;20.890;2022-10-16T14:41:00;18.80;98.60
19359;DHT22;9815;52.334;20.890;2022-10-16T14:43:33;18.70;99.00
19359;DHT22;9815;52.334;20.890;2022-10-16T14:46:12;18.80;97.80
19359;DHT22;9815;52.334;20.890;2022-10-16T14:48:42;18.80;97.90
19359;DHT22;9815;52.334;20.890;2022-10-16T14:51:13;18.80;97.70
19359;DHT22;9815;52.334;20.890;2022-10-16T14:53:41;18.90;97.00
19359;DHT22;9815;52.334;20.890;2022-10-16T14:56:16;18.90;97.00
19359;DHT22;9815;52.334;20.890;2022-10-16T14:58:44;18.80;97.30
19359;DHT22;9815;52.334;20.890;2022-10-16T15:01:14;18.80;97.40
19359;DHT22;9815;52.334;20.890;2022-10-16T15:03:42;18.80;98.30
19359;DHT22;9815;52.334;20.890;2022-10-16T15:06:11;18.70;98.90
19359;DHT22;9815;52.334;20.890;2022-10-16T15:08:39;18.60;99.80
19359;DHT22;9815;52.334;20.890;2022-10-16T15:11:10;18.60;99.90
19359;DHT22;9815;52.334;20.890;2022-10-16T15:13:40;18.60;99.90
19359;DHT22;9815;52.334;20.890;2022-10-16T15:16:10;18.50;99.90
19359;DHT22;9815;52.334;20.890;2022-10-16T15:18:40;18.40;99.90
19359;DHT22;9815;52.334;20.890;2022-10-16T15:21:08;18.30;99.90
19359;DHT22;9815;52.334;20.890;2022-10-16T15:23:36;18.30;99.90
19359;DHT22;9815;52.334;20.890;2022-10-16T15:26:05;18.20;99.90
19359;DHT22;9815;52.334;20.890;2022-10-16T15:28:33;18.10;99.90
19359;DHT22;9815;52.334;20.890;2022-10-16T15:31:04;18.10;99.90
19359;DHT22;9815;52.334;20.890;2022-10-16T15:33:32;18.00;99.90
19359;DHT22;9815;52.334;20.890;2022-10-16T15:36:07;18.10;99.90
19359;DHT22;9815;52.334;20.890;2022-10-16T15:38:35;18.00;99.90
19359;DHT22;9815;52.334;20.890;2022-10-16T15:41:03;17.90;99.90
19359;DHT22;9815;52.334;20.890;2022-10-16T15:43:31;17.90;99.90
19359;DHT22;9815;52.334;20.890;2022-10-16T15:46:01;17.90;99.90
19359;DHT22;9815;52.334;20.890;2022-10-16T15:48:30;17.80;99.90
19359;DHT22;9815;52.334;20.890;2022-10-16T15:50:59;17.80;99.90
19359;DHT22;9815;52.334;20.890;2022-10-16T15:53:28;17.80;99.90
19359;DHT22;9815;52.334;20.890;2022-10-16T15:55:57;17.80;99.90
19359;DHT22;9815;52.334;20.890;2022-10-16T15:58:24;17.80;99.90
19359;DHT22;9815;52.334;20.890;2022-10-16T16:00:56;17.70;99.90
19359;DHT22;9815;52.334;20.890;2022-10-16T16:03:24;17.70;99.90
19359;DHT22;9815;52.334;20.890;2022-10-16T16:05:53;17.70;99.90